createdAt,value
2019-06-01T00:00:26.420Z,96281.6
2019-06-01T00:01:28.325Z,96277.9
2019-06-01T00:02:30.749Z,96283.1
2019-06-01T00:03:32.900Z,96285
2019-06-01T00:04:35.077Z,96287.9
2019-06-01T00:05:38.574Z,96283.3
2019-06-01T00:06:43.066Z,96282.8
2019-06-01T00:07:48.921Z,96287.3
2019-06-01T00:08:50.882Z,96285.8
2019-06-01T00:09:53.472Z,96282.4
2019-06-01T00:10:55.629Z,96283.5
2019-06-01T00:11:57.504Z,96281.7
2019-06-01T00:12:59.935Z,96279.4
2019-06-01T00:14:02.362Z,96277.6
2019-06-01T00:15:04.796Z,96280.2
2019-06-01T00:16:06.951Z,96280.8
2019-06-01T00:17:09.122Z,96280.1
2019-06-01T00:18:11.051Z,96278.6
2019-06-01T00:19:13.482Z,96277.8
2019-06-01T00:20:15.616Z,96277.2
2019-06-01T00:21:18.594Z,96278.3
2019-06-01T00:22:20.754Z,96271.8
2019-06-01T00:23:23.183Z,96271.1
2019-06-01T00:24:25.614Z,96269.1
2019-06-01T00:25:28.046Z,96269.1
2019-06-01T00:26:30.476Z,96266
2019-06-01T00:27:32.361Z,96270.5
2019-06-01T00:28:34.786Z,96269.3
2019-06-01T00:29:36.947Z,96270.3
2019-06-01T00:30:39.110Z,96269.6
2019-06-01T00:31:45.274Z,96263.9
2019-06-01T00:32:49.931Z,96263.6
2019-06-01T00:33:53.070Z,96264
2019-06-01T00:34:55.195Z,96268.9
2019-06-01T00:35:57.622Z,96260.9
2019-06-01T00:37:00.054Z,96260.4
2019-06-01T00:38:02.515Z,96261.4
2019-06-01T00:39:04.951Z,96258.7
2019-06-01T00:40:07.447Z,96260.6
2019-06-01T00:41:09.894Z,96259.4
2019-06-01T00:42:12.363Z,96256.6
2019-06-01T00:43:14.603Z,96256.7
2019-06-01T00:44:17.035Z,96255.6
2019-06-01T00:45:19.460Z,96256.4
2019-06-01T00:46:21.612Z,96255.1
2019-06-01T00:47:23.512Z,96251.2
2019-06-01T00:48:25.936Z,96249.8
2019-06-01T00:49:27.796Z,96246.8
2019-06-01T00:50:30.239Z,96244.7
2019-06-01T00:51:32.783Z,96246.5
2019-06-01T00:52:34.943Z,96246.5
2019-06-01T00:53:37.372Z,96246.6
2019-06-01T00:54:39.805Z,96247.7
2019-06-01T00:55:43.206Z,96246.2
2019-06-01T00:56:47.860Z,96247.3
2019-06-01T00:57:53.940Z,96247.5
2019-06-01T00:58:56.184Z,96250.4
2019-06-01T00:59:58.347Z,96242
2019-06-01T01:01:00.764Z,96243.9
2019-06-01T01:02:03.197Z,96245.4
2019-06-01T01:03:05.343Z,96242.4
2019-06-01T01:04:07.772Z,96245.6
2019-06-01T01:05:10.198Z,96245.2
2019-06-01T01:06:12.619Z,96246
2019-06-01T01:07:15.050Z,96244.5
2019-06-01T01:08:17.468Z,96241.8
2019-06-01T01:09:19.886Z,96244.4
2019-06-01T01:10:22.052Z,96245.6
2019-06-01T01:11:24.199Z,96245.5
2019-06-01T01:12:26.624Z,96246.8
2019-06-01T01:13:29.112Z,96248.6
2019-06-01T01:14:30.982Z,96243.4
2019-06-01T01:15:33.416Z,96251.5
2019-06-01T01:16:35.572Z,96250.2
2019-06-01T01:17:38.613Z,96252.7
2019-06-01T01:18:41.049Z,96249.5
2019-06-01T01:19:43.473Z,96255.8
2019-06-01T01:20:48.336Z,96252
2019-06-01T01:21:52.624Z,96252.7
2019-06-01T01:22:57.396Z,96247.5
2019-06-01T01:23:59.555Z,96247
2019-06-01T01:25:02.015Z,96248.8
2019-06-01T01:26:04.524Z,96246.1
2019-06-01T01:27:06.984Z,96247.9
2019-06-01T01:28:09.401Z,96248.6
2019-06-01T01:29:11.528Z,96254
2019-06-01T01:30:13.690Z,96246.1
2019-06-01T01:31:16.130Z,96244.1
2019-06-01T01:32:18.273Z,96244.2
2019-06-01T01:33:20.723Z,96247.6
2019-06-01T01:34:22.906Z,96247.4
2019-06-01T01:35:25.334Z,96243.4
2019-06-01T01:36:27.757Z,96242.8
2019-06-01T01:37:30.178Z,96243.9
2019-06-01T01:38:32.603Z,96241.1
2019-06-01T01:39:34.784Z,96246.6
2019-06-01T01:40:36.673Z,96242.1
2019-06-01T01:41:39.092Z,96245.1
2019-06-01T01:42:41.526Z,96247.5
2019-06-01T01:43:43.686Z,96246.6
2019-06-01T01:44:46.115Z,96246.8
2019-06-01T01:45:50.608Z,96248.2
2019-06-01T01:46:55.329Z,96247
2019-06-01T01:48:01.393Z,96248.8
2019-06-01T01:49:04.118Z,96248.1
2019-06-01T01:50:06.283Z,96247.8
2019-06-01T01:51:08.714Z,96247.4
2019-06-01T01:52:11.136Z,96246.8
2019-06-01T01:53:13.560Z,96246.9
2019-06-01T01:54:15.994Z,96243.5
2019-06-01T01:55:18.160Z,96243.8
2019-06-01T01:56:20.586Z,96245.6
2019-06-01T01:57:23.019Z,96242.3
2019-06-01T01:58:25.174Z,96244.3
2019-06-01T01:59:27.338Z,96247.7
2019-06-01T02:00:29.492Z,96243.8
2019-06-01T02:01:31.924Z,96238.9
2019-06-01T02:02:33.791Z,96242.1
2019-06-01T02:03:35.918Z,96242.2
2019-06-01T02:04:38.340Z,96241.3
2019-06-01T02:05:40.225Z,96242.8
2019-06-01T02:06:42.656Z,96238.9
2019-06-01T02:07:45.654Z,96242.4
2019-06-01T02:08:47.817Z,96241.9
2019-06-01T02:09:51.536Z,96239.2
2019-06-01T02:10:57.435Z,96240.9
2019-06-01T02:12:02.447Z,96238.2
2019-06-01T02:13:04.592Z,96234.2
2019-06-01T02:14:07.024Z,96236.2
2019-06-01T02:15:09.450Z,96234.2
2019-06-01T02:16:11.598Z,96236.8
2019-06-01T02:17:14.039Z,96237.5
2019-06-01T02:18:16.468Z,96235.5
2019-06-01T02:19:18.891Z,96235.7
2019-06-01T02:20:21.031Z,96238.4
2019-06-01T02:21:23.448Z,96235.3
2019-06-01T02:22:25.348Z,96237.1
2019-06-01T02:23:27.507Z,96232.1
2019-06-01T02:24:29.979Z,96234.6
2019-06-01T02:25:32.110Z,96232.1
2019-06-01T02:26:33.979Z,96234.3
2019-06-01T02:27:36.142Z,96231
2019-06-01T02:28:38.312Z,96232.1
2019-06-01T02:29:40.757Z,96231.7
2019-06-01T02:30:43.187Z,96236
2019-06-01T02:31:45.071Z,96234.7
2019-06-01T02:32:47.212Z,96232.8
2019-06-01T02:33:49.635Z,96235.4
2019-06-01T02:34:51.809Z,96234.9
2019-06-01T02:36:02.967Z,96232.9
2019-06-01T02:37:07.434Z,96234.4
2019-06-01T02:38:09.879Z,96231.3
2019-06-01T02:39:12.025Z,96230.2
2019-06-01T02:40:14.333Z,96232.9
2019-06-01T02:41:16.783Z,96233.1
2019-06-01T02:42:18.953Z,96231.8
2019-06-01T02:43:20.839Z,96228.3
2019-06-01T02:44:23.255Z,96230.3
2019-06-01T02:45:25.682Z,96228.8
2019-06-01T02:46:27.826Z,96227.3
2019-06-01T02:47:30.255Z,96224.5
2019-06-01T02:48:32.761Z,96227.7
2019-06-01T02:49:35.261Z,96225.9
2019-06-01T02:50:37.763Z,96228.3
2019-06-01T02:51:40.196Z,96229.5
2019-06-01T02:52:42.634Z,96230.4
2019-06-01T02:53:44.790Z,96228.3
2019-06-01T02:54:46.944Z,96230.1
2019-06-01T02:55:49.132Z,96228.7
2019-06-01T02:56:51.584Z,96226.6
2019-06-01T02:57:54.006Z,96228.7
2019-06-01T02:58:56.742Z,96235.5
2019-06-01T03:00:00.922Z,96230.6
2019-06-01T03:01:07.513Z,96229.3
2019-06-01T03:03:14.910Z,96227.6
2019-06-01T03:04:17.360Z,96234.2
2019-06-01T03:05:19.505Z,96234.7
2019-06-01T03:06:21.652Z,96233.2
2019-06-01T03:07:23.802Z,96232.6
2019-06-01T03:08:25.960Z,96236.2
2019-06-01T03:09:28.123Z,96235.5
2019-06-01T03:10:30.594Z,96235.6
2019-06-01T03:11:33.025Z,96234.7
2019-06-01T03:12:35.454Z,96237.4
2019-06-01T03:13:37.604Z,96233.1
2019-06-01T03:14:39.764Z,96231.4
2019-06-01T03:15:41.638Z,96229.8
2019-06-01T03:16:43.798Z,96231.4
2019-06-01T03:17:45.971Z,96235.8
2019-06-01T03:18:47.897Z,96229.4
2019-06-01T03:19:50.086Z,96232.7
2019-06-01T03:20:52.508Z,96235.6
2019-06-01T03:21:54.934Z,96233.9
2019-06-01T03:22:57.355Z,96233.5
2019-06-01T03:24:02.328Z,96232
2019-06-01T03:25:07.983Z,96231.8
2019-06-01T03:26:10.468Z,96232.8
2019-06-01T03:27:13.832Z,96235.4
2019-06-01T03:28:16.266Z,96234.1
2019-06-01T03:29:18.818Z,96236.1
2019-06-01T03:30:20.732Z,96236.9
2019-06-01T03:31:22.895Z,96237
2019-06-01T03:33:30.306Z,96233.2
2019-06-01T03:34:32.731Z,96233.3
2019-06-01T03:35:35.158Z,96233.8
2019-06-01T03:36:37.581Z,96234.7
2019-06-01T03:37:39.729Z,96235.5
2019-06-01T03:38:41.586Z,96234.5
2019-06-01T03:39:43.726Z,96234.2
2019-06-01T03:40:46.147Z,96232.3
2019-06-01T03:41:48.574Z,96237
2019-06-01T03:42:50.734Z,96233.7
2019-06-01T03:43:52.861Z,96232.3
2019-06-01T03:44:55.048Z,96234.2
2019-06-01T03:45:56.913Z,96235.8
2019-06-01T03:46:59.152Z,96232.3
2019-06-01T03:48:03.044Z,96236.8
2019-06-01T03:49:08.217Z,96235
2019-06-01T03:50:11.514Z,96234.3
2019-06-01T03:51:15.225Z,96235.4
2019-06-01T03:52:17.652Z,96234.1
2019-06-01T03:53:20.078Z,96234.8
2019-06-01T03:54:22.494Z,96232.3
2019-06-01T03:55:24.644Z,96227.4
2019-06-01T03:56:27.074Z,96231.3
2019-06-01T03:57:29.232Z,96231.6
2019-06-01T03:58:31.116Z,96229.8
2019-06-01T03:59:33.268Z,96229.2
2019-06-01T04:00:35.396Z,96233.8
2019-06-01T04:01:37.541Z,96230.8
2019-06-01T04:02:39.975Z,96231.8
2019-06-01T04:03:42.402Z,96229.3
2019-06-01T04:04:44.570Z,96236.3
2019-06-01T04:05:46.994Z,96234.5
2019-06-01T04:06:49.178Z,96235.3
2019-06-01T04:07:51.334Z,96237
2019-06-01T04:08:53.765Z,96228.5
2019-06-01T04:09:55.946Z,96228.9
2019-06-01T04:10:58.373Z,96228.5
2019-06-01T04:12:01.922Z,96229.4
2019-06-01T04:13:07.538Z,96228.9
2019-06-01T04:14:12.283Z,96229.8
2019-06-01T04:16:19.412Z,96228.7
2019-06-01T04:17:21.864Z,96225.9
2019-06-01T04:18:24.295Z,96228.5
2019-06-01T04:19:26.739Z,96228.8
2019-06-01T04:20:29.161Z,96226.4
2019-06-01T04:21:31.324Z,96224.4
2019-06-01T04:22:33.519Z,96224.6
2019-06-01T04:23:37.700Z,96229.1
2019-06-01T04:24:40.122Z,96226.3
2019-06-01T04:25:42.556Z,96227.5
2019-06-01T04:26:44.991Z,96227.3
2019-06-01T04:27:46.894Z,96227.2
2019-06-01T04:28:49.378Z,96231.4
2019-06-01T04:29:51.828Z,96232.3
2019-06-01T04:30:54.014Z,96230.4
2019-06-01T04:31:56.444Z,96228.3
2019-06-01T04:32:58.887Z,96228.5
2019-06-01T04:34:01.097Z,96228.5
2019-06-01T04:35:08.983Z,96228.6
2019-06-01T04:36:13.549Z,96231.4
2019-06-01T04:37:15.989Z,96231.4
2019-06-01T04:38:18.122Z,96229.3
2019-06-01T04:39:20.286Z,96228.7
2019-06-01T04:40:22.713Z,96229.9
2019-06-01T04:41:25.131Z,96229.2
2019-06-01T04:42:27.282Z,96229.3
2019-06-01T04:43:29.445Z,96228
2019-06-01T04:44:31.604Z,96232.1
2019-06-01T04:45:33.777Z,96233.5
2019-06-01T04:46:36.210Z,96230.2
2019-06-01T04:47:38.643Z,96232.8
2019-06-01T04:48:41.087Z,96231.6
2019-06-01T04:49:43.243Z,96233.1
2019-06-01T04:50:45.393Z,96235.4
2019-06-01T04:51:47.839Z,96229.7
2019-06-01T04:52:50.259Z,96228
2019-06-01T04:53:52.173Z,96228
2019-06-01T04:54:54.595Z,96234.1
2019-06-01T04:55:56.765Z,96233.3
2019-06-01T04:56:59.224Z,96232.8
2019-06-01T04:58:01.378Z,96231.4
2019-06-01T04:59:05.343Z,96228.7
2019-06-01T05:01:15.115Z,96232.9
2019-06-01T05:02:17.586Z,96231.3
2019-06-01T05:03:20.017Z,96232.6
2019-06-01T05:04:22.160Z,96233.6
2019-06-01T05:05:24.601Z,96239.2
2019-06-01T05:06:27.021Z,96233.3
2019-06-01T05:07:28.937Z,96235.7
2019-06-01T05:08:31.391Z,96231.6
2019-06-01T05:09:33.267Z,96230.9
2019-06-01T05:10:35.425Z,96233.9
2019-06-01T05:11:37.890Z,96230.5
2019-06-01T05:12:40.323Z,96233.4
2019-06-01T05:13:42.763Z,96229.5
2019-06-01T05:14:45.208Z,96237.7
2019-06-01T05:15:47.643Z,96236.1
2019-06-01T05:16:49.845Z,96234.9
2019-06-01T05:17:52.039Z,96238.2
2019-06-01T05:18:54.196Z,96234.5
2019-06-01T05:19:56.626Z,96238.2
2019-06-01T05:20:58.797Z,96239
2019-06-01T05:22:01.234Z,96234.8
2019-06-01T05:23:03.411Z,96233
2019-06-01T05:24:07.141Z,96235.3
2019-06-01T05:26:17.666Z,96232.6
2019-06-01T05:27:20.093Z,96238.8
2019-06-01T05:28:22.523Z,96237.4
2019-06-01T05:29:24.951Z,96233.9
2019-06-01T05:30:27.381Z,96233.4
2019-06-01T05:31:29.826Z,96232.8
2019-06-01T05:32:32.266Z,96231.7
2019-06-01T05:34:39.674Z,96235.9
2019-06-01T05:35:41.844Z,96237.2
2019-06-01T05:36:44.282Z,96240
2019-06-01T05:37:46.707Z,96235.4
2019-06-01T05:38:48.747Z,96234.7
2019-06-01T05:39:51.158Z,96232.3
2019-06-01T05:40:53.621Z,96235.1
2019-06-01T05:41:56.051Z,96232
2019-06-01T05:42:58.185Z,96231.3
2019-06-01T05:44:00.615Z,96228.9
2019-06-01T05:45:02.792Z,96229.2
2019-06-01T05:46:05.224Z,96231.5
2019-06-01T05:47:07.657Z,96229.2
2019-06-01T05:49:17.105Z,96227.4
2019-06-01T05:50:20.744Z,96221
2019-06-01T05:51:24.256Z,96223.3
2019-06-01T05:52:25.853Z,96220.4
2019-06-01T05:53:28.002Z,96219.8
2019-06-01T05:54:30.430Z,96217.9
2019-06-01T05:55:32.625Z,96222.3
2019-06-01T05:56:35.038Z,96222.4
2019-06-01T05:57:37.479Z,96220.7
2019-06-01T05:58:39.888Z,96222.5
2019-06-01T05:59:42.141Z,96219.5
2019-06-01T06:00:44.611Z,96223.2
2019-06-01T06:01:47.039Z,96224.9
2019-06-01T06:02:49.219Z,96224.6
2019-06-01T06:03:51.643Z,96221.8
2019-06-01T06:04:55.685Z,96222.9
2019-06-01T06:05:58.114Z,96221.5
2019-06-01T06:07:00.271Z,96223.3
2019-06-01T06:08:02.695Z,96227
2019-06-01T06:09:05.108Z,96225.5
2019-06-01T06:10:07.534Z,96228.3
2019-06-01T06:11:11.285Z,96226.2
2019-06-01T06:12:17.774Z,96231.8
2019-06-01T06:13:22.622Z,96228.3
2019-06-01T06:14:25.054Z,96230.3
2019-06-01T06:15:27.490Z,96230.3
2019-06-01T06:16:29.913Z,96229.1
2019-06-01T06:17:32.344Z,96228.8
2019-06-01T06:18:34.762Z,96229.8
2019-06-01T06:19:37.199Z,96233.1
2019-06-01T06:20:39.375Z,96225.5
2019-06-01T06:21:41.805Z,96226.5
2019-06-01T06:22:44.298Z,96223.2
2019-06-01T06:23:46.761Z,96224.9
2019-06-01T06:24:48.929Z,96227.5
2019-06-01T06:25:51.367Z,96226
2019-06-01T06:26:53.785Z,96220.4
2019-06-01T06:27:55.687Z,96221.4
2019-06-01T06:28:58.548Z,96222.8
2019-06-01T06:30:01.023Z,96224.1
2019-06-01T06:31:03.466Z,96222.5
2019-06-01T06:32:08.700Z,96219.1
2019-06-01T06:33:13.624Z,96221.1
2019-06-01T06:34:19.583Z,96222
2019-06-01T06:35:24.378Z,96222.4
2019-06-01T06:36:26.549Z,96217.8
2019-06-01T06:37:28.978Z,96223.1
2019-06-01T06:38:31.129Z,96218.7
2019-06-01T06:39:33.285Z,96222.6
2019-06-01T06:40:35.448Z,96218.8
2019-06-01T06:41:37.609Z,96220.2
2019-06-01T06:42:39.773Z,96219.8
2019-06-01T06:43:41.944Z,96221.1
2019-06-01T06:44:44.973Z,96216.9
2019-06-01T06:45:47.443Z,96220
2019-06-01T06:46:49.875Z,96220.9
2019-06-01T06:47:51.723Z,96220.9
2019-06-01T06:48:54.173Z,96221.1
2019-06-01T06:49:56.305Z,96222.7
2019-06-01T06:50:58.454Z,96220.6
2019-06-01T06:52:00.886Z,96221.8
2019-06-01T06:53:03.324Z,96221.3
2019-06-01T06:54:05.499Z,96224.2
2019-06-01T06:55:07.669Z,96221.9
2019-06-01T06:56:09.794Z,96224
2019-06-01T06:57:12.223Z,96221.7
2019-06-01T06:58:14.085Z,96219.1
2019-06-01T06:59:16.936Z,96219.6
2019-06-01T07:00:22.593Z,96222.2
2019-06-01T07:01:27.514Z,96225.7
2019-06-01T07:02:29.947Z,96219.1
2019-06-01T07:03:32.389Z,96219.3
2019-06-01T07:04:34.553Z,96217.3
2019-06-01T07:05:36.975Z,96218.2
2019-06-01T07:06:39.471Z,96216.4
2019-06-01T07:07:41.353Z,96218.1
2019-06-01T07:08:43.793Z,96219.7
2019-06-01T07:09:45.945Z,96218.3
2019-06-01T07:10:48.113Z,96218.3
2019-06-01T07:11:50.574Z,96214.4
2019-06-01T07:12:52.722Z,96216.2
2019-06-01T07:13:55.146Z,96217.8
2019-06-01T07:14:57.800Z,96214.7
2019-06-01T07:16:03.183Z,96220.3
2019-06-01T07:17:06.657Z,96218
2019-06-01T07:18:09.202Z,96216
2019-06-01T07:19:11.344Z,96220
2019-06-01T07:20:13.796Z,96217.2
2019-06-01T07:21:16.240Z,96214.9
2019-06-01T07:22:20.194Z,96218.6
2019-06-01T07:23:25.796Z,96214.6
2019-06-01T07:24:29.682Z,96219.8
2019-06-01T07:25:32.918Z,96220.8
2019-06-01T07:26:35.465Z,96220.2
2019-06-01T07:27:37.914Z,96219
2019-06-01T07:28:40.057Z,96225
2019-06-01T07:29:42.232Z,96225.5
2019-06-01T07:31:49.363Z,96224.9
2019-06-01T07:32:51.802Z,96224.6
2019-06-01T07:33:54.266Z,96221.8
2019-06-01T07:35:00.112Z,96223.6
2019-06-01T07:36:03.113Z,96226
2019-06-01T07:37:05.553Z,96229
2019-06-01T07:38:07.993Z,96225.7
2019-06-01T07:39:10.419Z,96227.9
2019-06-01T07:41:17.598Z,96225.8
2019-06-01T07:43:27.294Z,96224.2
2019-06-01T07:44:30.965Z,96222.5
2019-06-01T07:46:38.379Z,96220.7
2019-06-01T07:47:40.270Z,96215.3
2019-06-01T07:48:42.347Z,96214
2019-06-01T07:49:44.203Z,96215.1
2019-06-01T07:50:46.620Z,96215.5
2019-06-01T07:51:48.901Z,96211
2019-06-01T07:52:51.110Z,96210.2
2019-06-01T07:53:53.629Z,96212
2019-06-01T07:54:56.077Z,96212
2019-06-01T07:55:58.237Z,96212.8
2019-06-01T07:57:00.388Z,96212
2019-06-01T07:58:02.556Z,96210.8
2019-06-01T07:59:04.987Z,96211.1
2019-06-01T08:00:07.495Z,96212.5
2019-06-01T08:01:09.669Z,96214.4
2019-06-01T08:02:12.183Z,96210.7
2019-06-01T08:03:14.635Z,96218.4
2019-06-01T08:04:16.834Z,96211.1
2019-06-01T08:05:19.269Z,96210
2019-06-01T08:06:28.072Z,96211.4
2019-06-01T08:07:33.500Z,96205.3
2019-06-01T08:08:35.388Z,96208.9
2019-06-01T08:09:37.548Z,96207.7
2019-06-01T08:10:39.981Z,96205.4
2019-06-01T08:11:42.414Z,96209.8
2019-06-01T08:12:44.854Z,96205.7
2019-06-01T08:13:47.292Z,96203.5
2019-06-01T08:14:49.795Z,96204.6
2019-06-01T08:15:51.932Z,96206.8
2019-06-01T08:16:54.135Z,96206.8
2019-06-01T08:17:56.679Z,96204.1
2019-06-01T08:18:58.948Z,96207.3
2019-06-01T08:20:01.411Z,96202.1
2019-06-01T08:21:03.561Z,96200.8
2019-06-01T08:22:06.115Z,96199.6
2019-06-01T08:23:08.640Z,96198.8
2019-06-01T08:24:10.969Z,96200.8
2019-06-01T08:25:13.512Z,96199.1
2019-06-01T08:26:15.501Z,96201.2
2019-06-01T08:27:19.825Z,96201.7
2019-06-01T08:28:24.361Z,96201.4
2019-06-01T08:29:30.636Z,96201.4
2019-06-01T08:30:34.165Z,96201.2
2019-06-01T08:31:36.319Z,96197.8
2019-06-01T08:32:38.481Z,96201.2
2019-06-01T08:33:40.657Z,96201.7
2019-06-01T08:34:43.075Z,96199.5
2019-06-01T08:35:45.501Z,96195.9
2019-06-01T08:36:47.670Z,96196.3
2019-06-01T08:37:50.106Z,96193.1
2019-06-01T08:38:52.281Z,96195.4
2019-06-01T08:39:54.167Z,96193.4
2019-06-01T08:40:56.590Z,96197.7
2019-06-01T08:41:58.745Z,96193.2
2019-06-01T08:43:01.323Z,96195.2
2019-06-01T08:44:03.889Z,96193.7
2019-06-01T08:45:06.443Z,96196.9
2019-06-01T08:46:08.918Z,96187.7
2019-06-01T08:47:11.398Z,96193
2019-06-01T08:48:13.624Z,96188.3
2019-06-01T08:49:16.129Z,96189.2
2019-06-01T08:50:18.641Z,96187.3
2019-06-01T08:51:20.815Z,96181.4
2019-06-01T08:52:24.429Z,96182.2
2019-06-01T08:53:29.966Z,96181.3
2019-06-01T08:54:34.950Z,96179.2
2019-06-01T08:55:37.109Z,96187.2
2019-06-01T08:56:39.004Z,96181.4
2019-06-01T08:57:41.443Z,96182.7
2019-06-01T08:58:43.597Z,96179.7
2019-06-01T08:59:46.271Z,96181.9
2019-06-01T09:00:48.784Z,96182.4
2019-06-01T09:01:51.238Z,96182.3
2019-06-01T09:02:53.695Z,96180
2019-06-01T09:03:56.125Z,96179.7
2019-06-01T09:04:58.282Z,96181.2
2019-06-01T09:06:00.447Z,96179.9
2019-06-01T09:07:02.893Z,96175.3
2019-06-01T09:08:05.397Z,96172.9
2019-06-01T09:09:11.484Z,96175.8
2019-06-01T09:10:14.262Z,96176.9
2019-06-01T09:11:16.691Z,96182.1
2019-06-01T09:12:19.184Z,96177.8
2019-06-01T09:13:21.603Z,96179
2019-06-01T09:14:25.085Z,96176.9
2019-06-01T09:15:32.286Z,96181.3
2019-06-01T09:16:37.385Z,96177.3
2019-06-01T09:17:39.590Z,96175.3
2019-06-01T09:18:42.015Z,96180.4
2019-06-01T09:19:44.444Z,96175.7
2019-06-01T09:20:46.595Z,96177.8
2019-06-01T09:21:49.024Z,96173.4
2019-06-01T09:22:51.193Z,96169.7
2019-06-01T09:23:53.338Z,96172.1
2019-06-01T09:24:55.766Z,96172.6
2019-06-01T09:25:58.285Z,96168.5
2019-06-01T09:27:00.719Z,96170.9
2019-06-01T09:28:03.141Z,96170.8
2019-06-01T09:29:05.563Z,96173.7
2019-06-01T09:30:07.731Z,96170.9
2019-06-01T09:31:10.165Z,96171.5
2019-06-01T09:32:12.762Z,96172.5
2019-06-01T09:33:14.928Z,96171
2019-06-01T09:34:17.090Z,96174.4
2019-06-01T09:35:19.505Z,96170.1
2019-06-01T09:36:21.661Z,96172.6
2019-06-01T09:37:23.825Z,96171.8
2019-06-01T09:38:25.688Z,96174.6
2019-06-01T09:39:33.143Z,96167
2019-06-01T09:40:38.276Z,96171.6
2019-06-01T09:41:40.709Z,96162.2
2019-06-01T09:42:42.569Z,96172.8
2019-06-01T09:43:44.713Z,96169
2019-06-01T09:44:47.151Z,96169.3
2019-06-01T09:46:54.274Z,96171
2019-06-01T09:47:56.757Z,96171.3
2019-06-01T09:48:59.438Z,96167.3
2019-06-01T09:50:01.859Z,96175
2019-06-01T09:51:04.283Z,96173.3
2019-06-01T09:52:06.733Z,96176.9
2019-06-01T09:53:09.181Z,96174.6
2019-06-01T09:54:11.598Z,96173.8
2019-06-01T09:55:13.754Z,96172.8
2019-06-01T09:56:15.620Z,96172.9
2019-06-01T09:57:18.047Z,96169.5
2019-06-01T09:58:20.239Z,96171.2
2019-06-01T09:59:22.121Z,96167.6
2019-06-01T10:00:24.287Z,96174.3
2019-06-01T10:01:26.194Z,96168.7
2019-06-01T10:02:32.600Z,96167.5
2019-06-01T10:03:39.008Z,96172.5
2019-06-01T10:04:41.145Z,96178.3
2019-06-01T10:05:43.014Z,96176.7
2019-06-01T10:06:49.372Z,96178.7
2019-06-01T10:07:51.535Z,96173.3
2019-06-01T10:08:53.704Z,96174.4
2019-06-01T10:09:55.857Z,96168.5
2019-06-01T10:10:58.000Z,96168.2
2019-06-01T10:12:00.159Z,96171.8
2019-06-01T10:13:02.588Z,96172.4
2019-06-01T10:14:04.754Z,96167.9
2019-06-01T10:15:07.059Z,96170.8
2019-06-01T10:16:09.263Z,96171.8
2019-06-01T10:17:11.692Z,96172
2019-06-01T10:18:13.871Z,96168.6
2019-06-01T10:19:15.766Z,96172.7
2019-06-01T10:20:17.363Z,96170.9
2019-06-01T10:21:19.860Z,96173.8
2019-06-01T10:22:22.107Z,96157.9
2019-06-01T10:23:24.742Z,96167.3
2019-06-01T10:24:27.243Z,96163.8
2019-06-01T10:25:34.344Z,96163.8
2019-06-01T10:26:40.025Z,96159.6
2019-06-01T10:27:44.417Z,96158.1
2019-06-01T10:28:46.594Z,96163
2019-06-01T10:29:48.490Z,96154.1
2019-06-01T10:30:50.644Z,96156.7
2019-06-01T10:31:52.507Z,96163.5
2019-06-01T10:32:54.932Z,96161.3
2019-06-01T10:33:57.403Z,96153.9
2019-06-01T10:34:59.965Z,96162.1
2019-06-01T10:37:07.375Z,96154.2
2019-06-01T10:38:09.544Z,96156.1
2019-06-01T10:39:11.985Z,96158.2
2019-06-01T10:40:14.416Z,96154
2019-06-01T10:41:16.854Z,96152.8
2019-06-01T10:42:19.287Z,96157.8
2019-06-01T10:43:21.511Z,96160.3
2019-06-01T10:44:23.961Z,96157.5
2019-06-01T10:45:26.290Z,96160
2019-06-01T10:46:28.393Z,96161.6
2019-06-01T10:47:32.228Z,96156.3
2019-06-01T10:48:38.555Z,96161.6
2019-06-01T10:49:43.103Z,96163.4
2019-06-01T10:50:45.533Z,96157.6
2019-06-01T10:51:47.702Z,96154.8
2019-06-01T10:52:50.143Z,96152.1
2019-06-01T10:53:52.329Z,96147.4
2019-06-01T10:54:54.763Z,96148.8
2019-06-01T10:55:57.197Z,96155.1
2019-06-01T10:56:59.071Z,96148.5
2019-06-01T10:58:01.753Z,96148.4
2019-06-01T10:59:04.205Z,96154.4
2019-06-01T11:00:06.850Z,96155.5
2019-06-01T11:01:09.020Z,96151.8
2019-06-01T11:02:11.787Z,96151.5
2019-06-01T11:03:14.224Z,96147.9
2019-06-01T11:04:16.377Z,96147.7
2019-06-01T11:05:18.877Z,96155.4
2019-06-01T11:07:26.286Z,96147.7
2019-06-01T11:08:28.715Z,96148.3
2019-06-01T11:09:30.605Z,96151.3
2019-06-01T11:10:35.364Z,96144.3
2019-06-01T11:11:41.111Z,96144.6
2019-06-01T11:12:44.588Z,96144.8
2019-06-01T11:13:47.032Z,96146.9
2019-06-01T11:14:48.913Z,96141.8
2019-06-01T11:15:51.086Z,96140.5
2019-06-01T11:17:58.504Z,96132.3
2019-06-01T11:19:00.668Z,96136.6
2019-06-01T11:20:03.113Z,96138.5
2019-06-01T11:21:05.004Z,96143.1
2019-06-01T11:22:07.166Z,96139.7
2019-06-01T11:23:09.596Z,96143.3
2019-06-01T11:24:12.199Z,96142
2019-06-01T11:25:14.765Z,96141.1
2019-06-01T11:26:17.189Z,96140
2019-06-01T11:27:19.072Z,96141.3
2019-06-01T11:28:20.988Z,96139.1
2019-06-01T11:29:23.268Z,96138.2
2019-06-01T11:30:25.440Z,96139.1
2019-06-01T11:31:27.887Z,96135.5
2019-06-01T11:32:30.338Z,96138.5
2019-06-01T11:33:33.838Z,96129.8
2019-06-01T11:34:42.303Z,96130.8
2019-06-01T11:35:46.689Z,96127.3
2019-06-01T11:37:54.294Z,96126.2
2019-06-01T11:38:56.193Z,96122.9
2019-06-01T11:39:58.069Z,96123
2019-06-01T11:41:00.211Z,96125
2019-06-01T11:42:02.649Z,96119.6
2019-06-01T11:43:04.834Z,96126.3
2019-06-01T11:44:06.743Z,96121.3
2019-06-01T11:45:09.163Z,96123.9
2019-06-01T11:46:11.312Z,96120.8
2019-06-01T11:47:13.473Z,96118.3
2019-06-01T11:48:15.915Z,96113.7
2019-06-01T11:50:23.062Z,96110.6
2019-06-01T11:51:25.496Z,96115.1
2019-06-01T11:52:27.390Z,96105.9
2019-06-01T11:53:29.554Z,96105.5
2019-06-01T11:54:31.983Z,96104.4
2019-06-01T11:55:35.663Z,96101.5
2019-06-01T11:56:41.327Z,96102.9
2019-06-01T11:57:46.363Z,96102.9
2019-06-01T11:58:48.793Z,96098.4
2019-06-01T11:59:51.223Z,96097.8
2019-06-01T12:00:53.664Z,96101.6
2019-06-01T12:01:56.117Z,96095.2
2019-06-01T12:02:58.286Z,96099.8
2019-06-01T12:04:00.161Z,96097.8
2019-06-01T12:05:02.592Z,96092.1
2019-06-01T12:06:05.026Z,96094.3
2019-06-01T12:08:12.450Z,96094.9
2019-06-01T12:09:14.888Z,96095.6
2019-06-01T12:10:17.329Z,96095.4
2019-06-01T12:11:19.765Z,96096.5
2019-06-01T12:12:22.209Z,96096.1
2019-06-01T12:13:24.377Z,96098.1
2019-06-01T12:14:26.802Z,96098.6
2019-06-01T12:15:29.260Z,96096.1
2019-06-01T12:16:31.706Z,96096.4
2019-06-01T12:17:34.157Z,96091.8
2019-06-01T12:18:39.035Z,96090.6
2019-06-01T12:19:44.735Z,96092
2019-06-01T12:20:48.061Z,96092.9
2019-06-01T12:21:50.234Z,96091.6
2019-06-01T12:22:52.401Z,96094.4
2019-06-01T12:23:54.552Z,96092.1
2019-06-01T12:24:56.684Z,96088.7
2019-06-01T12:25:58.853Z,96082.4
2019-06-01T12:27:01.281Z,96086.2
2019-06-01T12:28:03.711Z,96086
2019-06-01T12:29:06.138Z,96085.2
2019-06-01T12:30:08.562Z,96083.9
2019-06-01T12:31:11.000Z,96083.9
2019-06-01T12:32:13.425Z,96079.4
2019-06-01T12:33:15.867Z,96078.9
2019-06-01T12:34:18.319Z,96080.3
2019-06-01T12:35:20.470Z,96078
2019-06-01T12:36:23.006Z,96078
2019-06-01T12:38:30.132Z,96074.1
2019-06-01T12:39:32.346Z,96075.2
2019-06-01T12:40:34.501Z,96072.6
2019-06-01T12:41:36.923Z,96072.7
2019-06-01T12:42:42.068Z,96074.1
2019-06-01T12:43:48.263Z,96076.2
2019-06-01T12:44:51.705Z,96070.4
2019-06-01T12:46:59.418Z,96072
2019-06-01T12:48:01.849Z,96068.1
2019-06-01T12:49:04.348Z,96065
2019-06-01T12:50:06.869Z,96066.2
2019-06-01T12:51:09.401Z,96064
2019-06-01T12:52:11.914Z,96064.6
2019-06-01T12:53:14.348Z,96064.7
2019-06-01T12:54:16.862Z,96061.3
2019-06-01T12:55:19.344Z,96062.4
2019-06-01T12:56:21.793Z,96058.5
2019-06-01T12:57:24.243Z,96057.7
2019-06-01T12:58:26.348Z,96057.5
2019-06-01T12:59:28.787Z,96061.1
2019-06-01T13:00:30.397Z,96059.5
2019-06-01T13:01:32.824Z,96057.5
2019-06-01T13:02:35.254Z,96058.4
2019-06-01T13:03:37.738Z,96057.9